createdAt,value
2019-04-27T00:00:56.132Z,8.97
2019-04-27T00:01:56.128Z,8.85
2019-04-27T00:03:02.196Z,8.95
2019-04-27T00:03:56.120Z,8.95
2019-04-27T00:04:56.112Z,8.94
2019-04-27T00:05:56.109Z,8.94
2019-04-27T00:06:56.105Z,8.97
2019-04-27T00:07:59.298Z,8.97
2019-04-27T00:08:56.094Z,8.94
2019-04-27T00:09:56.089Z,8.94
2019-04-27T00:10:59.807Z,9.00
2019-04-27T00:11:56.084Z,9.03
2019-04-27T00:12:57.263Z,8.95
2019-04-27T00:13:56.070Z,9.00
2019-04-27T00:14:56.142Z,8.91
2019-04-27T00:15:56.062Z,8.92
2019-04-27T00:16:56.061Z,8.95
2019-04-27T00:17:58.284Z,8.97
2019-04-27T00:18:57.954Z,9.03
2019-04-27T00:19:56.045Z,9.06
2019-04-27T00:20:56.037Z,9.06
2019-04-27T00:21:56.033Z,9.02
2019-04-27T00:22:56.029Z,8.97
2019-04-27T00:23:56.029Z,8.94
2019-04-27T00:24:56.030Z,9.11
2019-04-27T00:25:56.015Z,8.94
2019-04-27T00:26:56.009Z,8.97
2019-04-27T00:27:56.005Z,9.08
2019-04-27T00:28:56.003Z,8.99
2019-04-27T00:29:55.997Z,8.92
2019-04-27T00:30:55.991Z,9.10
2019-04-27T00:31:55.987Z,9.02
2019-04-27T00:32:55.986Z,9.06
2019-04-27T00:33:55.977Z,8.97
2019-04-27T00:34:55.973Z,8.95
2019-04-27T00:35:55.968Z,8.97
2019-04-27T00:36:55.962Z,8.95
2019-04-27T00:37:55.957Z,8.99
2019-04-27T00:38:55.952Z,8.85
2019-04-27T00:39:55.949Z,8.88
2019-04-27T00:40:55.944Z,8.89
2019-04-27T00:41:55.939Z,8.85
2019-04-27T00:42:55.935Z,8.89
2019-04-27T00:43:55.930Z,8.84
2019-04-27T00:44:55.925Z,8.79
2019-04-27T00:45:55.922Z,8.64
2019-04-27T00:46:55.914Z,8.64
2019-04-27T00:47:59.527Z,8.70
2019-04-27T00:48:55.905Z,8.67
2019-04-27T00:49:55.901Z,8.70
2019-04-27T00:50:55.896Z,8.74
2019-04-27T00:51:55.892Z,8.63
2019-04-27T00:52:55.886Z,8.53
2019-04-27T00:53:55.881Z,8.60
2019-04-27T00:54:55.876Z,8.61
2019-04-27T00:55:55.872Z,8.55
2019-04-27T00:56:55.867Z,8.52
2019-04-27T00:57:55.869Z,8.60
2019-04-27T00:58:55.857Z,8.46
2019-04-27T00:59:55.854Z,8.37
2019-04-27T01:00:55.847Z,8.36
2019-04-27T01:01:55.843Z,8.28
2019-04-27T01:02:55.837Z,8.33
2019-04-27T01:03:55.834Z,8.31
2019-04-27T01:04:55.829Z,8.34
2019-04-27T01:05:55.823Z,8.34
2019-04-27T01:06:55.818Z,8.37
2019-04-27T01:07:55.813Z,8.34
2019-04-27T01:08:55.808Z,8.33
2019-04-27T01:09:55.803Z,8.28
2019-04-27T01:10:55.799Z,8.31
2019-04-27T01:11:55.793Z,8.28
2019-04-27T01:12:55.790Z,8.45
2019-04-27T01:13:55.783Z,8.24
2019-04-27T01:14:55.781Z,8.15
2019-04-27T01:15:55.773Z,8.31
2019-04-27T01:16:55.767Z,8.26
2019-04-27T01:18:09.560Z,8.28
2019-04-27T01:18:55.758Z,8.19
2019-04-27T01:19:55.754Z,8.10
2019-04-27T01:20:55.747Z,8.10
2019-04-27T01:21:55.745Z,8.15
2019-04-27T01:22:55.738Z,8.12
2019-04-27T01:23:55.735Z,8.16
2019-04-27T01:24:55.728Z,8.05
2019-04-27T01:25:55.722Z,8.08
2019-04-27T01:26:55.717Z,8.12
2019-04-27T01:27:55.712Z,8.05
2019-04-27T01:28:55.706Z,8.12
2019-04-27T01:29:55.717Z,8.05
2019-04-27T01:30:55.696Z,8.06
2019-04-27T01:31:55.691Z,7.98
2019-04-27T01:32:55.685Z,8.00
2019-04-27T01:33:55.690Z,8.00
2019-04-27T01:34:55.676Z,7.94
2019-04-27T01:35:55.671Z,7.93
2019-04-27T01:36:55.666Z,7.83
2019-04-27T01:37:55.660Z,7.82
2019-04-27T01:38:55.655Z,7.82
2019-04-27T01:39:55.650Z,7.79
2019-04-27T01:40:55.643Z,7.83
2019-04-27T01:41:55.640Z,7.83
2019-04-27T01:42:55.635Z,7.83
2019-04-27T01:43:55.631Z,7.83
2019-04-27T01:44:55.630Z,7.83
2019-04-27T01:45:55.618Z,7.80
2019-04-27T01:46:55.614Z,7.82
2019-04-27T01:47:55.607Z,7.76
2019-04-27T01:48:55.602Z,7.82
2019-04-27T01:49:55.597Z,7.77
2019-04-27T01:50:55.592Z,7.79
2019-04-27T01:51:55.587Z,7.75
2019-04-27T01:52:55.581Z,7.73
2019-04-27T01:53:55.575Z,7.73
2019-04-27T01:54:55.573Z,7.72
2019-04-27T01:55:55.565Z,7.69
2019-04-27T01:56:55.559Z,7.66
2019-04-27T01:57:55.556Z,7.60
2019-04-27T01:58:55.549Z,7.61
2019-04-27T01:59:55.545Z,7.61
2019-04-27T02:00:55.538Z,7.60
2019-04-27T02:01:55.533Z,7.57
2019-04-27T02:02:55.528Z,7.60
2019-04-27T02:03:55.523Z,7.57
2019-04-27T02:04:55.516Z,7.57
2019-04-27T02:05:55.513Z,7.60
2019-04-27T02:06:55.507Z,7.51
2019-04-27T02:07:55.503Z,7.54
2019-04-27T02:08:55.495Z,7.50
2019-04-27T02:09:55.491Z,7.47
2019-04-27T02:10:55.485Z,7.45
2019-04-27T02:11:55.480Z,7.43
2019-04-27T02:12:55.473Z,7.36
2019-04-27T02:13:55.469Z,7.38
2019-04-27T02:14:55.465Z,7.36
2019-04-27T02:15:55.457Z,7.38
2019-04-27T02:16:55.451Z,7.33
2019-04-27T02:17:55.448Z,7.40
2019-04-27T02:18:55.442Z,7.39
2019-04-27T02:19:55.440Z,7.39
2019-04-27T02:20:55.435Z,7.45
2019-04-27T02:21:55.426Z,7.31
2019-04-27T02:22:55.427Z,7.35
2019-04-27T02:23:55.413Z,7.32
2019-04-27T02:24:55.407Z,7.32
2019-04-27T02:25:55.404Z,7.32
2019-04-27T02:26:55.399Z,7.35
2019-04-27T02:27:55.392Z,7.32
2019-04-27T02:28:55.387Z,7.28
2019-04-27T02:29:55.381Z,7.32
2019-04-27T02:30:55.376Z,7.28
2019-04-27T02:31:55.371Z,7.38
2019-04-27T02:32:55.365Z,7.31
2019-04-27T02:33:55.360Z,7.25
2019-04-27T02:34:55.359Z,7.24
2019-04-27T02:35:55.352Z,7.23
2019-04-27T02:36:55.342Z,7.29
2019-04-27T02:37:55.337Z,7.23
2019-04-27T02:38:55.332Z,7.23
2019-04-27T02:39:55.329Z,7.20
2019-04-27T02:40:55.328Z,7.18
2019-04-27T02:41:55.316Z,7.17
2019-04-27T02:42:55.310Z,7.15
2019-04-27T02:43:55.307Z,7.21
2019-04-27T02:44:55.301Z,7.24
2019-04-27T02:45:55.292Z,7.10
2019-04-27T02:46:55.292Z,7.14
2019-04-27T02:47:55.283Z,7.13
2019-04-27T02:49:00.037Z,7.10
2019-04-27T02:49:55.271Z,7.11
2019-04-27T02:50:55.266Z,7.15
2019-04-27T02:51:55.261Z,7.17
2019-04-27T02:52:55.253Z,7.14
2019-04-27T02:53:55.248Z,7.03
2019-04-27T02:54:55.243Z,7.07
2019-04-27T02:55:55.239Z,7.02
2019-04-27T02:56:55.232Z,7.03
2019-04-27T02:57:55.225Z,7.03
2019-04-27T02:58:55.228Z,7.05
2019-04-27T02:59:55.215Z,7.03
2019-04-27T03:00:55.209Z,7.06
2019-04-27T03:01:55.204Z,6.89
2019-04-27T03:02:55.201Z,6.99
2019-04-27T03:03:55.193Z,6.93
2019-04-27T03:04:55.186Z,6.88
2019-04-27T03:05:55.181Z,6.88
2019-04-27T03:06:55.177Z,6.88
2019-04-27T03:07:55.169Z,6.88
2019-04-27T03:08:55.163Z,6.92
2019-04-27T03:09:55.157Z,6.88
2019-04-27T03:10:55.152Z,6.79
2019-04-27T03:11:55.151Z,6.81
2019-04-27T03:12:55.141Z,6.79
2019-04-27T03:13:55.134Z,6.77
2019-04-27T03:14:55.129Z,6.78
2019-04-27T03:15:55.123Z,6.66
2019-04-27T03:16:55.116Z,6.78
2019-04-27T03:17:55.111Z,6.85
2019-04-27T03:19:10.217Z,6.74
2019-04-27T03:19:55.100Z,6.84
2019-04-27T03:20:55.094Z,6.87
2019-04-27T03:21:55.088Z,6.85
2019-04-27T03:22:55.083Z,6.82
2019-04-27T03:23:55.078Z,6.77
2019-04-27T03:24:55.073Z,6.79
2019-04-27T03:25:55.072Z,6.78
2019-04-27T03:26:55.060Z,6.75
2019-04-27T03:27:55.054Z,6.72
2019-04-27T03:28:55.048Z,6.77
2019-04-27T03:29:55.042Z,6.79
2019-04-27T03:30:55.036Z,6.79
2019-04-27T03:31:55.032Z,6.77
2019-04-27T03:32:56.615Z,6.84
2019-04-27T03:33:58.877Z,6.79
2019-04-27T03:34:55.019Z,6.81
2019-04-27T03:35:55.015Z,6.85
2019-04-27T03:36:55.017Z,6.75
2019-04-27T03:37:54.997Z,6.79
2019-04-27T03:38:54.989Z,6.77
2019-04-27T03:39:54.982Z,6.77
2019-04-27T03:40:54.979Z,6.67
2019-04-27T03:41:54.970Z,6.74
2019-04-27T03:42:54.974Z,6.78
2019-04-27T03:43:54.960Z,6.79
2019-04-27T03:44:54.953Z,6.70
2019-04-27T03:45:54.955Z,6.70
2019-04-27T03:46:54.943Z,6.64
2019-04-27T03:47:54.936Z,6.66
2019-04-27T03:48:54.930Z,6.66
2019-04-27T03:49:54.924Z,6.57
2019-04-27T03:50:54.919Z,6.67
2019-04-27T03:51:54.927Z,6.63
2019-04-27T03:52:54.916Z,6.67
2019-04-27T03:53:57.232Z,6.67
2019-04-27T03:54:54.895Z,6.64
2019-04-27T03:55:54.889Z,6.70
2019-04-27T03:56:54.882Z,6.67
2019-04-27T03:57:54.877Z,6.67
2019-04-27T03:58:54.870Z,6.63
2019-04-27T03:59:54.866Z,6.63
2019-04-27T04:00:54.876Z,6.64
2019-04-27T04:01:54.853Z,6.67
2019-04-27T04:02:54.846Z,6.64
2019-04-27T04:03:54.841Z,6.69
2019-04-27T04:04:54.838Z,6.72
2019-04-27T04:05:54.831Z,6.64
2019-04-27T04:06:54.824Z,6.70
2019-04-27T04:07:54.818Z,6.70
2019-04-27T04:08:55.222Z,6.66
2019-04-27T04:09:54.807Z,6.72
2019-04-27T04:10:54.800Z,6.66
2019-04-27T04:11:54.794Z,6.70
2019-04-27T04:12:56.337Z,6.69
2019-04-27T04:13:54.783Z,6.70
2019-04-27T04:14:54.777Z,6.69
2019-04-27T04:15:54.773Z,6.78
2019-04-27T04:16:58.955Z,6.74
2019-04-27T04:17:54.758Z,6.75
2019-04-27T04:18:54.756Z,6.79
2019-04-27T04:19:58.063Z,6.84
2019-04-27T04:20:54.740Z,6.85
2019-04-27T04:21:54.734Z,6.85
2019-04-27T04:22:54.731Z,6.84
2019-04-27T04:23:54.724Z,6.87
2019-04-27T04:24:54.718Z,6.92
2019-04-27T04:25:54.713Z,6.88
2019-04-27T04:26:54.708Z,6.92
2019-04-27T04:27:54.701Z,6.95
2019-04-27T04:28:54.695Z,6.95
2019-04-27T04:29:54.688Z,7.06
2019-04-27T04:30:54.683Z,6.96
2019-04-27T04:31:54.677Z,7.03
2019-04-27T04:32:54.671Z,6.92
2019-04-27T04:33:54.664Z,6.96
2019-04-27T04:34:54.661Z,7.05
2019-04-27T04:35:54.656Z,7.07
2019-04-27T04:36:54.650Z,7.10
2019-04-27T04:37:54.662Z,7.17
2019-04-27T04:38:54.637Z,7.17
2019-04-27T04:39:54.631Z,7.18
2019-04-27T04:40:54.625Z,7.25
2019-04-27T04:41:54.618Z,7.25
2019-04-27T04:42:54.614Z,7.28
2019-04-27T04:43:54.608Z,7.33
2019-04-27T04:44:54.601Z,7.31
2019-04-27T04:45:54.598Z,7.35
2019-04-27T04:46:54.589Z,7.40
2019-04-27T04:47:54.585Z,7.48
2019-04-27T04:48:54.580Z,7.50
2019-04-27T04:50:07.562Z,7.57
2019-04-27T04:50:54.570Z,7.51
2019-04-27T04:51:54.563Z,7.60
2019-04-27T04:52:54.556Z,7.61
2019-04-27T04:53:54.551Z,7.58
2019-04-27T04:54:54.545Z,7.54
2019-04-27T04:55:54.540Z,7.67
2019-04-27T04:56:54.534Z,7.73
2019-04-27T04:57:54.528Z,7.75
2019-04-27T04:58:54.523Z,7.79
2019-04-27T04:59:54.518Z,7.76
2019-04-27T05:00:54.512Z,7.79
2019-04-27T05:01:54.506Z,7.82
2019-04-27T05:02:54.509Z,7.83
2019-04-27T05:03:54.494Z,7.91
2019-04-27T05:04:54.490Z,8.01
2019-04-27T05:05:54.483Z,7.98
2019-04-27T05:06:54.477Z,8.05
2019-04-27T05:07:54.472Z,8.13
2019-04-27T05:08:54.469Z,8.18
2019-04-27T05:09:54.460Z,8.19
2019-04-27T05:10:54.456Z,8.26
2019-04-27T05:11:54.455Z,8.23
2019-04-27T05:12:54.444Z,8.27
2019-04-27T05:13:54.440Z,8.38
2019-04-27T05:14:54.434Z,8.41
2019-04-27T05:15:54.428Z,8.61
2019-04-27T05:16:54.423Z,8.69
2019-04-27T05:17:54.418Z,8.64
2019-04-27T05:18:54.415Z,8.82
2019-04-27T05:19:54.407Z,8.92
2019-04-27T05:20:54.401Z,9.02
2019-04-27T05:21:54.398Z,9.02
2019-04-27T05:22:54.391Z,9.16
2019-04-27T05:23:54.387Z,9.32
2019-04-27T05:24:54.381Z,9.31
2019-04-27T05:25:54.376Z,9.43
2019-04-27T05:26:54.371Z,9.54
2019-04-27T05:27:54.365Z,9.61
2019-04-27T05:28:54.360Z,9.65
2019-04-27T05:29:54.357Z,9.66
2019-04-27T05:30:54.351Z,9.65
2019-04-27T05:31:54.347Z,9.79
2019-04-27T05:32:54.342Z,9.79
2019-04-27T05:33:54.335Z,9.89
2019-04-27T05:34:54.333Z,9.89
2019-04-27T05:35:54.327Z,9.91
2019-04-27T05:36:54.322Z,9.89
2019-04-27T05:37:54.316Z,9.97
2019-04-27T05:38:54.313Z,9.97
2019-04-27T05:39:54.306Z,10.05
2019-04-27T05:40:54.300Z,10.01
2019-04-27T05:41:54.297Z,10.12
2019-04-27T05:42:55.380Z,10.17
2019-04-27T05:43:54.286Z,10.17
2019-04-27T05:44:54.281Z,10.13
2019-04-27T05:45:59.392Z,10.17
2019-04-27T05:46:54.273Z,10.25
2019-04-27T05:47:54.267Z,10.34
2019-04-27T05:48:54.262Z,10.34
2019-04-27T05:49:54.259Z,10.34
2019-04-27T05:50:58.797Z,10.31
2019-04-27T05:51:54.249Z,10.46
2019-04-27T05:52:54.243Z,10.59
2019-04-27T05:53:54.239Z,10.68
2019-04-27T05:54:54.235Z,10.74
2019-04-27T05:55:54.230Z,10.79
2019-04-27T05:56:54.225Z,10.82
2019-04-27T05:57:54.222Z,11.02
2019-04-27T05:58:54.218Z,10.94
2019-04-27T05:59:54.214Z,11.05
2019-04-27T06:00:54.207Z,10.99
2019-04-27T06:01:54.202Z,11.02
2019-04-27T06:02:54.199Z,11.00
2019-04-27T06:03:54.194Z,11.11
2019-04-27T06:04:54.190Z,11.10
2019-04-27T06:05:54.186Z,11.12
2019-04-27T06:06:54.183Z,11.14
2019-04-27T06:07:54.179Z,11.18
2019-04-27T06:08:54.173Z,11.11
2019-04-27T06:09:54.170Z,11.14
2019-04-27T06:10:54.165Z,11.12
2019-04-27T06:11:54.185Z,11.15
2019-04-27T06:12:54.155Z,11.12
2019-04-27T06:13:54.151Z,11.14
2019-04-27T06:14:54.148Z,11.12
2019-04-27T06:15:54.143Z,11.15
2019-04-27T06:16:54.138Z,11.18
2019-04-27T06:17:54.135Z,11.22
2019-04-27T06:18:54.130Z,11.18
2019-04-27T06:19:54.132Z,11.17
2019-04-27T06:20:55.853Z,11.12
2019-04-27T06:21:54.119Z,11.11
2019-04-27T06:22:54.116Z,11.14
2019-04-27T06:23:54.116Z,11.12
2019-04-27T06:24:54.643Z,11.19
2019-04-27T06:25:54.101Z,11.11
2019-04-27T06:26:54.098Z,11.14
2019-04-27T06:27:54.095Z,11.11
2019-04-27T06:28:54.090Z,11.05
2019-04-27T06:29:54.086Z,11.15
2019-04-27T06:30:54.082Z,11.12
2019-04-27T06:31:54.076Z,11.12
2019-04-27T06:32:54.071Z,11.23
2019-04-27T06:33:54.068Z,11.18
2019-04-27T06:34:54.065Z,11.18
2019-04-27T06:35:54.061Z,11.25
2019-04-27T06:36:54.058Z,11.22
2019-04-27T06:37:54.054Z,11.32
2019-04-27T06:38:54.049Z,11.33
2019-04-27T06:39:54.044Z,11.36
2019-04-27T06:40:54.039Z,11.35
2019-04-27T06:41:54.035Z,11.30
2019-04-27T06:42:54.042Z,11.44
2019-04-27T06:43:54.027Z,11.45
2019-04-27T06:44:54.024Z,11.47
2019-04-27T06:45:54.020Z,11.48
2019-04-27T06:46:54.016Z,11.43
2019-04-27T06:47:54.012Z,11.44
2019-04-27T06:48:54.007Z,11.48
2019-04-27T06:49:54.005Z,11.62
2019-04-27T06:51:02.651Z,11.66
2019-04-27T06:51:53.996Z,11.72
2019-04-27T06:52:53.991Z,11.81
2019-04-27T06:53:53.990Z,11.78
2019-04-27T06:54:53.986Z,11.86
2019-04-27T06:55:53.982Z,11.81
2019-04-27T06:56:53.977Z,11.86
2019-04-27T06:57:53.973Z,11.91
2019-04-27T06:58:53.967Z,11.87
2019-04-27T06:59:53.969Z,11.90
2019-04-27T07:00:53.961Z,11.91
2019-04-27T07:01:53.960Z,12.03
2019-04-27T07:02:55.348Z,12.00
2019-04-27T07:03:53.957Z,12.02
2019-04-27T07:04:53.947Z,12.03
2019-04-27T07:05:53.943Z,12.00
2019-04-27T07:06:56.134Z,12.02
2019-04-27T07:07:53.936Z,12.03
2019-04-27T07:08:55.235Z,11.95
2019-04-27T07:09:53.929Z,11.90
2019-04-27T07:10:53.925Z,11.90
2019-04-27T07:11:53.923Z,11.95
2019-04-27T07:12:53.917Z,11.97
2019-04-27T07:13:53.915Z,12.06
2019-04-27T07:14:55.103Z,12.15
2019-04-27T07:15:53.909Z,12.12
2019-04-27T07:16:53.906Z,12.24
2019-04-27T07:17:53.902Z,12.27
2019-04-27T07:18:53.898Z,12.18
2019-04-27T07:19:53.897Z,12.10
2019-04-27T07:20:53.892Z,12.15
2019-04-27T07:21:53.885Z,12.09
2019-04-27T07:22:53.884Z,12.18
2019-04-27T07:23:53.880Z,12.10
2019-04-27T07:24:53.876Z,12.15
2019-04-27T07:25:53.873Z,12.20
2019-04-27T07:26:53.871Z,12.04
2019-04-27T07:27:53.867Z,12.04
2019-04-27T07:28:53.863Z,11.99
2019-04-27T07:29:53.896Z,12.06
2019-04-27T07:30:53.857Z,12.03
2019-04-27T07:31:53.855Z,11.87
2019-04-27T07:32:53.850Z,12.00
2019-04-27T07:33:53.847Z,11.97
2019-04-27T07:34:55.275Z,11.91
2019-04-27T07:35:53.840Z,11.87
2019-04-27T07:36:53.837Z,11.91
2019-04-27T07:37:53.834Z,11.86
2019-04-27T07:38:53.830Z,11.87
2019-04-27T07:39:53.827Z,11.87
2019-04-27T07:40:53.824Z,11.75
2019-04-27T07:41:53.818Z,11.75
2019-04-27T07:42:53.818Z,11.77
2019-04-27T07:43:53.813Z,11.84
2019-04-27T07:44:53.809Z,11.69
2019-04-27T07:45:53.806Z,11.73
2019-04-27T07:46:53.802Z,11.77
2019-04-27T07:47:53.799Z,11.70
2019-04-27T07:48:53.795Z,11.65
2019-04-27T07:49:53.794Z,11.68
2019-04-27T07:50:53.790Z,11.77
2019-04-27T07:51:53.785Z,11.83
2019-04-27T07:52:53.784Z,11.80
2019-04-27T07:53:53.779Z,11.86
2019-04-27T07:54:53.781Z,11.81
2019-04-27T07:55:53.773Z,11.78
2019-04-27T07:56:53.769Z,11.83
2019-04-27T07:57:53.766Z,11.83
2019-04-27T07:58:53.762Z,11.81
2019-04-27T07:59:53.759Z,11.70
2019-04-27T08:00:53.755Z,11.77
2019-04-27T08:01:53.756Z,11.77
2019-04-27T08:02:53.749Z,11.73
2019-04-27T08:03:53.748Z,11.73
2019-04-27T08:04:53.742Z,11.70
2019-04-27T08:05:53.741Z,11.78
2019-04-27T08:06:53.736Z,11.70
2019-04-27T08:07:53.731Z,11.75
2019-04-27T08:08:53.729Z,11.69
2019-04-27T08:09:53.727Z,11.77
2019-04-27T08:10:53.727Z,11.77
2019-04-27T08:11:53.720Z,11.73
2019-04-27T08:12:53.716Z,11.68
2019-04-27T08:13:53.712Z,11.75
2019-04-27T08:14:53.708Z,11.70
2019-04-27T08:15:53.706Z,11.72
2019-04-27T08:16:53.703Z,11.68
2019-04-27T08:17:53.698Z,11.63
2019-04-27T08:18:53.695Z,11.70
2019-04-27T08:19:53.692Z,11.77
2019-04-27T08:20:53.690Z,11.73
2019-04-27T08:21:53.685Z,11.68
2019-04-27T08:22:53.684Z,11.81
2019-04-27T08:23:53.680Z,11.78
2019-04-27T08:24:53.676Z,11.81
2019-04-27T08:25:53.670Z,11.83
2019-04-27T08:26:53.668Z,11.83
2019-04-27T08:27:53.663Z,11.70
2019-04-27T08:28:53.661Z,11.70
2019-04-27T08:29:53.656Z,11.73
2019-04-27T08:30:53.655Z,11.86
2019-04-27T08:31:53.652Z,11.69
2019-04-27T08:32:53.653Z,11.75
2019-04-27T08:33:53.643Z,11.65
2019-04-27T08:34:53.642Z,11.70
2019-04-27T08:35:53.638Z,11.73
2019-04-27T08:36:53.635Z,11.77
2019-04-27T08:37:53.631Z,11.73
2019-04-27T08:38:53.629Z,11.75
2019-04-27T08:39:53.624Z,11.78
2019-04-27T08:40:53.620Z,11.70
2019-04-27T08:41:53.618Z,11.68
2019-04-27T08:42:55.643Z,11.80
2019-04-27T08:43:53.615Z,11.83
2019-04-27T08:44:53.605Z,11.69
2019-04-27T08:45:53.603Z,11.77
2019-04-27T08:46:53.603Z,11.83
2019-04-27T08:47:53.597Z,11.84
2019-04-27T08:48:53.593Z,11.87
2019-04-27T08:49:53.589Z,11.95
2019-04-27T08:50:53.589Z,11.94
2019-04-27T08:51:59.271Z,11.97
2019-04-27T08:52:53.579Z,11.86
2019-04-27T08:53:53.575Z,11.91
2019-04-27T08:54:53.573Z,11.97
2019-04-27T08:55:53.570Z,11.90
2019-04-27T08:56:53.566Z,12.00
2019-04-27T08:57:53.567Z,11.97
2019-04-27T08:58:53.559Z,12.07
2019-04-27T08:59:53.555Z,12.13
2019-04-27T09:00:53.550Z,12.10
2019-04-27T09:01:53.549Z,12.25
2019-04-27T09:02:53.545Z,12.17
2019-04-27T09:03:53.543Z,12.12
2019-04-27T09:04:53.539Z,12.09
2019-04-27T09:05:53.536Z,12.10
2019-04-27T09:06:53.533Z,12.12
2019-04-27T09:07:53.532Z,12.22
2019-04-27T09:08:53.533Z,12.29
2019-04-27T09:09:53.522Z,12.17
2019-04-27T09:10:53.520Z,12.27
2019-04-27T09:11:53.518Z,12.24
2019-04-27T09:12:53.847Z,12.15
2019-04-27T09:13:53.511Z,12.12
2019-04-27T09:14:53.508Z,12.22
2019-04-27T09:15:53.506Z,12.12
2019-04-27T09:17:00.171Z,12.10
2019-04-27T09:17:53.497Z,12.06
2019-04-27T09:18:53.494Z,12.12
2019-04-27T09:19:53.492Z,12.04
2019-04-27T09:20:53.489Z,12.03
2019-04-27T09:21:53.485Z,12.02
2019-04-27T09:22:53.482Z,12.07
2019-04-27T09:23:53.479Z,12.02
2019-04-27T09:24:53.476Z,12.12
2019-04-27T09:25:53.472Z,12.07
2019-04-27T09:26:53.473Z,12.03
2019-04-27T09:27:53.473Z,12.00
2019-04-27T09:28:53.463Z,12.00
2019-04-27T09:29:53.461Z,11.91
2019-04-27T09:30:53.457Z,11.91
2019-04-27T09:31:53.455Z,11.99
2019-04-27T09:32:53.449Z,11.91
2019-04-27T09:33:53.447Z,12.02
2019-04-27T09:34:53.443Z,12.04
2019-04-27T09:35:53.441Z,12.03
2019-04-27T09:36:53.437Z,12.06
2019-04-27T09:37:53.433Z,12.09
2019-04-27T09:38:53.431Z,12.00
2019-04-27T09:39:53.429Z,12.09
2019-04-27T09:40:53.424Z,11.97
2019-04-27T09:41:53.421Z,11.90
2019-04-27T09:42:53.419Z,11.99
2019-04-27T09:43:53.415Z,12.10
2019-04-27T09:44:53.411Z,12.12
2019-04-27T09:45:53.409Z,12.10
2019-04-27T09:46:53.410Z,12.13
2019-04-27T09:47:53.403Z,12.15
2019-04-27T09:48:53.400Z,12.10
2019-04-27T09:49:53.394Z,12.10
2019-04-27T09:50:53.405Z,12.10
2019-04-27T09:51:53.391Z,12.02
2019-04-27T09:52:53.388Z,11.99
2019-04-27T09:53:53.384Z,12.02
2019-04-27T09:54:53.385Z,12.00
2019-04-27T09:55:53.376Z,12.03
2019-04-27T09:56:53.372Z,12.04
2019-04-27T09:57:53.371Z,12.00
2019-04-27T09:58:53.367Z,12.12
2019-04-27T09:59:53.364Z,12.09
2019-04-27T10:00:53.361Z,12.13
2019-04-27T10:01:53.357Z,12.13
2019-04-27T10:02:53.357Z,12.18
2019-04-27T10:03:53.353Z,12.13
2019-04-27T10:04:53.350Z,12.07
2019-04-27T10:05:53.345Z,11.99
2019-04-27T10:06:53.342Z,12.00
2019-04-27T10:07:53.339Z,12.02
2019-04-27T10:08:53.337Z,12.00
2019-04-27T10:09:53.333Z,12.03
2019-04-27T10:10:53.330Z,11.97
2019-04-27T10:11:53.327Z,11.99
2019-04-27T10:12:53.325Z,12.09
2019-04-27T10:13:53.328Z,12.03
2019-04-27T10:14:53.317Z,11.87
2019-04-27T10:15:53.315Z,11.91
2019-04-27T10:16:53.311Z,11.99
2019-04-27T10:17:53.307Z,12.00
2019-04-27T10:18:53.306Z,11.86
2019-04-27T10:19:53.302Z,11.86
2019-04-27T10:20:59.919Z,11.84
2019-04-27T10:21:53.294Z,11.87
2019-04-27T10:22:53.364Z,11.84
2019-04-27T10:23:53.289Z,11.88
2019-04-27T10:24:53.286Z,12.00
2019-04-27T10:25:53.282Z,11.97
2019-04-27T10:26:53.280Z,12.02
2019-04-27T10:27:53.279Z,11.97
2019-04-27T10:28:53.271Z,11.99
2019-04-27T10:29:53.272Z,11.99
2019-04-27T10:30:53.267Z,12.06
2019-04-27T10:31:53.264Z,12.04
2019-04-27T10:32:53.259Z,12.02
2019-04-27T10:33:53.257Z,12.00
2019-04-27T10:34:53.255Z,12.02
2019-04-27T10:35:53.251Z,11.99
2019-04-27T10:36:53.248Z,12.00
2019-04-27T10:37:53.244Z,12.04
2019-04-27T10:38:53.242Z,12.03
2019-04-27T10:39:53.239Z,11.94
2019-04-27T10:40:53.235Z,11.78
2019-04-27T10:41:53.232Z,11.65
2019-04-27T10:42:53.230Z,11.65
2019-04-27T10:43:53.226Z,11.45
2019-04-27T10:44:53.222Z,11.35
2019-04-27T10:45:53.219Z,11.37
2019-04-27T10:46:53.216Z,11.36
2019-04-27T10:47:53.213Z,11.43
2019-04-27T10:48:53.208Z,11.50
2019-04-27T10:49:53.209Z,11.50
2019-04-27T10:50:53.205Z,11.47
2019-04-27T10:51:53.198Z,11.45
2019-04-27T10:52:54.062Z,11.51
2019-04-27T10:53:53.192Z,11.41
2019-04-27T10:54:53.190Z,11.43
2019-04-27T10:55:53.186Z,11.43
2019-04-27T10:56:53.180Z,11.33
2019-04-27T10:57:53.179Z,11.36
2019-04-27T10:58:53.175Z,11.41
2019-04-27T10:59:53.171Z,11.37
2019-04-27T11:00:53.167Z,11.52
2019-04-27T11:01:53.166Z,11.51
2019-04-27T11:02:53.161Z,11.45
2019-04-27T11:03:53.157Z,11.60
2019-04-27T11:04:53.156Z,11.62
2019-04-27T11:05:53.150Z,11.73
2019-04-27T11:06:53.147Z,11.83
2019-04-27T11:07:53.144Z,11.80
2019-04-27T11:08:53.139Z,11.95
2019-04-27T11:09:53.137Z,11.81
2019-04-27T11:10:53.147Z,11.75
2019-04-27T11:11:53.131Z,11.75
2019-04-27T11:12:53.129Z,11.62
2019-04-27T11:13:53.122Z,11.63
2019-04-27T11:14:53.121Z,11.54
2019-04-27T11:15:53.117Z,11.51
2019-04-27T11:16:53.113Z,11.50
2019-04-27T11:17:53.111Z,11.48
2019-04-27T11:18:53.109Z,11.47
2019-04-27T11:19:53.104Z,11.47
2019-04-27T11:20:53.100Z,11.40
2019-04-27T11:21:53.096Z,11.30
2019-04-27T11:23:06.154Z,11.36
2019-04-27T11:23:53.091Z,11.36
2019-04-27T11:24:53.087Z,11.37
2019-04-27T11:25:53.083Z,11.33
2019-04-27T11:26:53.082Z,11.35
2019-04-27T11:27:53.078Z,11.33
2019-04-27T11:28:53.074Z,11.47
2019-04-27T11:29:53.070Z,11.33
2019-04-27T11:30:53.067Z,11.44
2019-04-27T11:31:53.063Z,11.50
2019-04-27T11:32:54.492Z,11.51
2019-04-27T11:33:53.058Z,11.62
2019-04-27T11:34:53.055Z,11.63
2019-04-27T11:35:53.058Z,11.65
2019-04-27T11:36:53.046Z,11.47
2019-04-27T11:37:53.043Z,11.29
2019-04-27T11:38:53.039Z,11.23
2019-04-27T11:39:53.038Z,10.92
2019-04-27T11:40:53.032Z,10.87
2019-04-27T11:41:53.030Z,10.56
2019-04-27T11:42:53.026Z,10.35
2019-04-27T11:43:53.025Z,10.54
2019-04-27T11:44:55.546Z,10.54
2019-04-27T11:45:53.019Z,10.51
2019-04-27T11:46:53.012Z,10.63
2019-04-27T11:47:53.014Z,10.68
2019-04-27T11:48:53.004Z,10.79
2019-04-27T11:49:53.000Z,11.07
2019-04-27T11:50:52.998Z,11.22
2019-04-27T11:51:52.995Z,11.26
2019-04-27T11:52:52.989Z,11.33
2019-04-27T11:53:52.987Z,11.52
2019-04-27T11:54:52.983Z,11.75
2019-04-27T11:55:52.982Z,11.86
2019-04-27T11:56:52.976Z,11.97
2019-04-27T11:57:52.972Z,11.95
2019-04-27T11:58:52.969Z,11.95
2019-04-27T11:59:52.966Z,11.91
2019-04-27T12:00:53.033Z,11.86
2019-04-27T12:01:52.959Z,11.83
2019-04-27T12:02:52.957Z,12.00
2019-04-27T12:03:52.953Z,12.07
2019-04-27T12:04:52.950Z,12.02
2019-04-27T12:05:52.947Z,12.06
2019-04-27T12:06:52.944Z,11.95
2019-04-27T12:07:52.944Z,11.86
2019-04-27T12:08:52.940Z,11.81
2019-04-27T12:09:52.943Z,11.80
2019-04-27T12:10:52.932Z,11.90
2019-04-27T12:11:52.930Z,12.04
2019-04-27T12:12:52.928Z,12.13
2019-04-27T12:13:52.929Z,12.03
2019-04-27T12:14:52.921Z,12.00
2019-04-27T12:15:52.919Z,12.07
2019-04-27T12:16:52.916Z,12.04
2019-04-27T12:17:52.912Z,11.84
2019-04-27T12:18:52.910Z,11.75
2019-04-27T12:19:52.909Z,11.66
2019-04-27T12:20:52.905Z,11.70
2019-04-27T12:21:52.900Z,11.65
2019-04-27T12:22:52.899Z,11.54
2019-04-27T12:23:52.896Z,11.65
2019-04-27T12:24:52.894Z,11.62
2019-04-27T12:25:52.894Z,11.59
2019-04-27T12:26:52.887Z,11.50
2019-04-27T12:27:52.886Z,11.62
2019-04-27T12:28:52.890Z,11.51
2019-04-27T12:29:52.881Z,11.45
2019-04-27T12:30:52.876Z,11.45
2019-04-27T12:31:52.875Z,11.45
2019-04-27T12:32:52.871Z,11.52
2019-04-27T12:33:52.867Z,11.47
2019-04-27T12:34:52.867Z,11.60
2019-04-27T12:35:52.868Z,11.75
2019-04-27T12:36:53.342Z,11.83
2019-04-27T12:37:52.857Z,11.81
2019-04-27T12:38:52.852Z,11.66
2019-04-27T12:39:52.851Z,11.66
2019-04-27T12:40:52.847Z,11.68
2019-04-27T12:41:52.846Z,11.83
2019-04-27T12:42:52.842Z,11.87
2019-04-27T12:43:52.839Z,11.84
2019-04-27T12:44:52.839Z,11.99
2019-04-27T12:45:52.831Z,12.24
2019-04-27T12:46:52.832Z,12.62
2019-04-27T12:47:52.838Z,12.90
2019-04-27T12:48:54.594Z,12.78
2019-04-27T12:49:52.820Z,12.80
2019-04-27T12:50:52.819Z,12.82
2019-04-27T12:51:52.816Z,13.28
2019-04-27T12:52:52.813Z,13.52
2019-04-27T12:53:53.081Z,13.59
2019-04-27T12:54:52.811Z,13.77
2019-04-27T12:55:52.808Z,13.68
2019-04-27T12:56:52.803Z,13.81
2019-04-27T12:57:52.802Z,13.86
2019-04-27T12:58:52.799Z,13.86
2019-04-27T12:59:52.797Z,13.86
2019-04-27T13:00:52.797Z,13.90
2019-04-27T13:01:52.794Z,13.83
2019-04-27T13:02:52.793Z,13.89
2019-04-27T13:03:52.789Z,13.67